Time;durP1;ratioP1;P1;durP2;ratioP2;P2;SDS_P1;SDS_P2;PMS_P1;PMS_P2;Temp;Humidity;BMP_temperature;BMP_pressure;BME280_temperature;BME280_humidity;BME280_pressure;Samples;Min_cycle;Max_cycle;Signal;HPM_P1;HPM_P2
2022/12/10 00:00:31;;;;;;;31.73;14.52;;;;;;;8.35;93.49;99290.97;5072430;28;20020;-44
2022/12/10 00:02:57;;;;;;;35.10;15.23;;;;;;;8.49;91.22;99304.28;5072817;28;20114;-44
2022/12/10 00:05:22;;;;;;;37.53;15.65;;;;;;;8.41;92.05;99276.09;5072911;28;20021;-45
2022/12/10 00:07:48;;;;;;;35.05;15.20;;;;;;;8.40;91.98;99285.91;5072884;28;20067;-44
2022/12/10 00:10:13;;;;;;;33.97;14.20;;;;;;;8.34;90.23;99278.75;5072651;28;20047;-44
2022/12/10 00:12:38;;;;;;;33.60;15.45;;;;;;;8.16;92.39;99276.66;5072711;28;20039;-43
2022/12/10 00:15:04;;;;;;;35.15;15.55;;;;;;;8.04;92.97;99267.66;5072635;28;20032;-44
2022/12/10 00:17:30;;;;;;;34.85;15.90;;;;;;;7.97;93.42;99274.75;5072421;28;20063;-45
2022/12/10 00:19:55;;;;;;;37.10;16.77;;;;;;;8.37;93.82;99275.69;5072467;28;20044;-44
2022/12/10 00:22:20;;;;;;;39.63;16.45;;;;;;;8.93;92.98;99287.00;5072475;28;20095;-45
2022/12/10 00:24:46;;;;;;;34.17;15.88;;;;;;;8.49;90.87;99277.78;5072295;28;20032;-44
2022/12/10 00:27:11;;;;;;;39.30;16.08;;;;;;;8.14;91.21;99275.22;5072595;28;20026;-44
2022/12/10 00:29:36;;;;;;;36.70;15.65;;;;;;;8.10;94.29;99279.28;5072412;28;20110;-44
2022/12/10 00:32:05;;;;;;;39.25;16.40;;;;;;;9.15;91.15;99292.94;5072178;28;20032;-44
2022/12/10 00:34:31;;;;;;;36.58;15.30;;;;;;;8.70;90.80;99277.63;5070951;28;20028;-46
2022/12/10 00:36:56;;;;;;;33.83;15.35;;;;;;;8.60;91.58;99271.88;5072151;28;20025;-44
2022/12/10 00:39:21;;;;;;;36.95;16.27;;;;;;;8.52;92.54;99283.50;5072582;28;20063;-44
2022/12/10 00:41:47;;;;;;;37.33;15.82;;;;;;;8.43;92.80;99291.84;5072227;28;20044;-44
2022/12/10 00:44:13;;;;;;;37.38;16.23;;;;;;;8.41;92.85;99300.84;5072313;28;20021;-44
2022/12/10 00:46:39;;;;;;;44.03;16.38;;;;;;;8.22;94.07;99291.78;5072243;28;20475;-43
2022/12/10 00:49:04;;;;;;;46.30;17.45;;;;;;;8.27;93.95;99282.41;5071889;28;20103;-44
2022/12/10 00:51:30;;;;;;;43.05;17.65;;;;;;;8.29;94.07;99286.47;5071819;28;20028;-41
2022/12/10 00:53:57;;;;;;;40.28;16.35;;;;;;;8.11;95.16;99278.25;5071619;28;20024;-44
2022/12/10 00:56:26;;;;;;;42.67;16.80;;;;;;;8.18;95.07;99285.22;5071980;28;20039;-44
2022/12/10 00:58:52;;;;;;;39.08;16.33;;;;;;;8.11;95.06;99283.56;5071698;28;20066;-43
2022/12/10 01:01:22;;;;;;;40.80;17.27;;;;;;;8.13;95.33;99271.75;5070954;28;20028;-43
2022/12/10 01:03:50;;;;;;;42.40;17.00;;;;;;;8.15;95.76;99272.38;5071600;28;20032;-43
2022/12/10 01:06:19;;;;;;;45.65;17.67;;;;;;;8.17;94.71;99275.63;5071615;28;20021;-44
2022/12/10 01:08:45;;;;;;;43.30;16.85;;;;;;;8.19;94.10;99270.97;5071867;28;20163;-46
2022/12/10 01:11:12;;;;;;;49.13;17.77;;;;;;;8.22;93.91;99278.53;5071642;28;20103;-43
2022/12/10 01:13:39;;;;;;;47.65;18.35;;;;;;;8.12;94.09;99266.66;5071523;28;20172;-46
2022/12/10 01:16:06;;;;;;;46.08;17.40;;;;;;;8.16;95.44;99268.69;5071326;28;20051;-46
2022/12/10 01:18:32;;;;;;;50.63;17.95;;;;;;;8.15;93.77;99268.91;5071391;28;20115;-45
2022/12/10 01:21:07;;;;;;;48.13;18.20;;;;;;;8.53;93.46;99255.97;5071553;28;20016;-44
2022/12/10 01:23:34;;;;;;;53.25;18.48;;;;;;;8.74;93.36;99254.97;5071277;28;20417;-44
2022/12/10 01:26:02;;;;;;;50.95;18.02;;;;;;;8.42;92.70;99264.53;5071316;28;20016;-43
2022/12/10 01:28:30;;;;;;;47.42;18.50;;;;;;;8.03;92.79;99250.09;5071073;28;20020;-43
2022/12/10 01:30:59;;;;;;;52.28;19.23;;;;;;;8.37;95.12;99251.00;5071371;28;20051;-45
2022/12/10 01:33:25;;;;;;;63.42;21.27;;;;;;;9.13;92.74;99247.19;5070504;28;20032;-43
2022/12/10 01:35:51;;;;;;;54.47;20.83;;;;;;;8.53;92.44;99237.41;5070892;28;20494;-47
2022/12/10 01:38:16;;;;;;;55.25;19.52;;;;;;;8.32;92.63;99241.03;5070943;28;20081;-44
2022/12/10 01:40:41;;;;;;;58.13;20.60;;;;;;;8.12;94.03;99233.00;5071250;28;20039;-45
2022/12/10 01:43:14;;;;;;;51.67;18.95;;;;;;;8.07;93.24;99238.06;5070692;28;20421;-44
2022/12/10 01:45:39;;;;;;;64.72;21.13;;;;;;;8.60;94.24;99232.09;5071002;28;20024;-44
2022/12/10 01:48:05;;;;;;;59.72;20.15;;;;;;;8.85;92.66;99231.50;5070641;28;20027;-43
2022/12/10 01:50:30;;;;;;;59.90;24.73;;;;;;;8.39;92.20;99241.00;5070780;28;20024;-44
2022/12/10 01:52:55;;;;;;;51.80;21.60;;;;;;;8.23;93.50;99227.13;5071065;28;20048;-44
2022/12/10 01:55:36;;;;;;;50.70;20.13;;;;;;;8.17;94.27;99227.13;5070834;28;20389;-44
2022/12/10 01:58:01;;;;;;;58.65;21.05;;;;;;;8.10;94.26;99215.69;5070846;28;20043;-45
2022/12/10 02:00:27;;;;;;;65.40;23.73;;;;;;;8.39;95.87;99211.84;5070772;28;20028;-43
2022/12/10 02:03:05;;;;;;;64.30;22.60;;;;;;;8.88;94.05;99212.53;5069927;28;20712;-44
2022/12/10 02:05:42;;;;;;;61.88;22.77;;;;;;;8.77;91.89;99211.28;5069979;28;20445;-44
2022/12/10 02:08:32;;;;;;;65.15;22.33;;;;;;;8.49;94.15;99220.28;5070981;28;20154;-43
2022/12/10 02:11:11;;;;;;;67.35;23.60;;;;;;;8.35;95.29;99219.38;5070791;28;20033;-45
2022/12/10 02:13:42;;;;;;;69.80;24.88;;;;;;;8.29;95.07;99217.56;5075105;28;20491;-44
2022/12/10 02:16:29;;;;;;;71.60;25.25;;;;;;;8.33;94.90;99199.41;5077193;28;20055;-43
2022/12/10 02:19:03;;;;;;;69.53;24.20;;;;;;;8.21;94.79;99200.00;5077403;28;20515;-43
2022/12/10 02:21:40;;;;;;;69.13;24.90;;;;;;;8.30;94.84;99203.28;5077168;28;20036;-43
2022/12/10 02:24:13;;;;;;;70.90;26.17;;;;;;;8.27;94.66;99194.91;5077579;28;20476;-43
2022/12/10 02:26:41;;;;;;;68.25;25.88;;;;;;;8.12;95.27;99211.81;5077024;28;20032;-44
2022/12/10 02:29:16;;;;;;;66.00;25.63;;;;;;;7.92;96.73;99202.97;5077033;28;20107;-43
2022/12/10 02:31:45;;;;;;;73.20;26.48;;;;;;;8.08;96.28;99204.47;5077110;28;20377;-44
2022/12/10 02:34:13;;;;;;;70.63;26.05;;;;;;;8.12;95.56;99208.34;5077125;28;20094;-44
2022/12/10 02:36:42;;;;;;;68.63;25.63;;;;;;;8.11;96.02;99226.09;5077129;28;20035;-44
2022/12/10 02:39:11;;;;;;;70.60;26.33;;;;;;;8.12;95.25;99221.59;5077041;28;20028;-44
2022/12/10 02:41:42;;;;;;;64.20;24.50;;;;;;;7.89;94.49;99192.78;5077160;28;20032;-44
2022/12/10 02:44:11;;;;;;;65.68;24.80;;;;;;;8.08;95.11;99217.72;5077019;28;20040;-44
2022/12/10 02:46:39;;;;;;;65.40;24.70;;;;;;;8.02;94.99;99220.13;5077080;28;20479;-44
2022/12/10 02:49:07;;;;;;;72.13;25.00;;;;;;;8.06;95.33;99228.50;5075653;28;20476;-43
2022/12/10 02:51:32;;;;;;;61.85;24.30;;;;;;;8.66;93.98;99220.66;5077221;28;20396;-44
2022/12/10 02:54:00;;;;;;;64.05;23.33;;;;;;;8.65;91.72;99212.94;5076908;28;20471;-44
2022/12/10 02:56:48;;;;;;;54.25;23.30;;;;;;;8.29;91.60;99216.75;5077045;28;20174;-44
2022/12/10 02:59:33;;;;;;;51.47;22.85;;;;;;;8.22;92.26;99200.81;5076949;28;20078;-45
2022/12/10 03:02:19;;;;;;;54.38;23.02;;;;;;;8.81;91.98;99207.19;5076877;28;20053;-44
2022/12/10 03:04:58;;;;;;;58.38;22.25;;;;;;;8.83;90.94;99199.84;5076924;28;20064;-46
2022/12/10 03:07:34;;;;;;;55.30;22.27;;;;;;;8.56;91.21;99209.66;5076796;28;20028;-45
2022/12/10 03:10:10;;;;;;;51.38;21.60;;;;;;;8.34;92.57;99191.25;5076986;28;20093;-45
2022/12/10 03:12:43;;;;;;;47.67;21.13;;;;;;;8.17;93.27;99192.66;5076858;28;20081;-44
2022/12/10 03:15:11;;;;;;;50.78;21.35;;;;;;;8.15;93.80;99207.94;5076877;28;20404;-45
2022/12/10 03:17:39;;;;;;;46.85;20.27;;;;;;;8.33;92.96;99199.41;5076867;28;20052;-44
2022/12/10 03:20:10;;;;;;;47.38;19.90;;;;;;;8.05;93.78;99192.41;5076905;28;20040;-44
2022/12/10 03:22:40;;;;;;;43.42;18.90;;;;;;;8.11;93.95;99186.34;5076868;28;20453;-44
2022/12/10 03:25:07;;;;;;;47.13;19.95;;;;;;;8.12;93.99;99177.34;5074032;28;20029;-44
2022/12/10 03:27:34;;;;;;;49.13;21.02;;;;;;;8.18;93.98;99181.84;5073325;28;20213;-44
2022/12/10 03:30:00;;;;;;;50.95;21.05;;;;;;;8.23;93.66;99184.72;5073617;28;20087;-45
2022/12/10 03:32:27;;;;;;;49.58;20.98;;;;;;;8.34;93.28;99187.78;5073581;28;20469;-44
2022/12/10 03:34:56;;;;;;;49.50;20.75;;;;;;;8.17;93.27;99190.00;5073426;28;20024;-44
2022/12/10 03:37:22;;;;;;;50.47;21.70;;;;;;;8.10;94.10;99178.56;5073429;28;20032;-44
2022/12/10 03:39:48;;;;;;;51.83;21.13;;;;;;;7.89;93.53;99164.47;5073281;28;20032;-44
2022/12/10 03:42:14;;;;;;;54.35;22.08;;;;;;;8.00;94.67;99176.31;5073277;28;20073;-44
2022/12/10 03:44:42;;;;;;;56.58;22.98;;;;;;;7.93;93.92;99173.63;5072706;28;20434;-44
2022/12/10 03:47:12;;;;;;;58.35;23.17;;;;;;;7.92;94.90;99171.19;5073433;28;20029;-44
2022/12/10 03:49:38;;;;;;;61.80;24.27;;;;;;;8.01;95.27;99164.69;5072903;28;20480;-44
2022/12/10 03:52:03;;;;;;;64.18;26.52;;;;;;;8.07;95.91;99161.22;5073062;28;20062;-44
2022/12/10 03:54:29;;;;;;;65.03;25.88;;;;;;;8.98;92.51;99151.88;5073069;28;20514;-44
2022/12/10 03:56:54;;;;;;;58.50;23.88;;;;;;;8.46;91.38;99150.91;5073127;28;20038;-46
2022/12/10 03:59:20;;;;;;;58.65;22.92;;;;;;;8.08;92.49;99160.22;5073113;28;20020;-44
2022/12/10 04:01:45;;;;;;;55.55;22.58;;;;;;;8.08;94.25;99160.22;5072737;28;20507;-45
2022/12/10 04:04:11;;;;;;;62.50;22.23;;;;;;;8.56;93.92;99161.91;5072904;28;20050;-44
2022/12/10 04:06:41;;;;;;;48.65;21.02;;;;;;;8.53;93.73;99149.06;5072845;28;20718;-46
2022/12/10 04:09:12;;;;;;;50.58;20.67;;;;;;;8.16;92.60;99165.31;5072779;28;20465;-45
2022/12/10 04:11:38;;;;;;;50.92;19.90;;;;;;;8.01;94.08;99175.28;5072705;28;20036;-45
2022/12/10 04:16:48;;;;;;;51.60;19.88;;;;;;;7.98;94.07;99175.72;5072516;28;20063;-44
2022/12/10 04:19:16;;;;;;;52.55;20.52;;;;;;;8.77;93.04;99177.63;5072640;28;20029;-46
2022/12/10 04:27:20;;;;;;;44.97;19.02;;;;;;;8.00;93.70;99150.63;5072672;28;20036;-45
2022/12/10 04:29:45;;;;;;;45.33;18.77;;;;;;;7.76;94.86;99156.47;5072110;28;20020;-45
2022/12/10 04:32:11;;;;;;;47.90;19.08;;;;;;;7.90;94.97;99178.50;5072484;28;20024;-45
2022/12/10 04:34:36;;;;;;;56.92;20.00;;;;;;;8.14;95.62;99169.19;5072426;28;20051;-46
2022/12/10 04:37:03;;;;;;;60.00;20.98;;;;;;;8.90;93.50;99170.69;5070719;28;20033;-45
2022/12/10 04:39:28;;;;;;;48.67;18.67;;;;;;;8.43;92.82;99175.97;5072169;28;20025;-45
2022/12/10 04:41:54;;;;;;;45.13;17.27;;;;;;;8.24;93.26;99166.97;5072024;28;20016;-45
2022/12/10 04:44:20;;;;;;;45.42;17.95;;;;;;;7.98;95.08;99178.34;5071983;28;20028;-46
2022/12/10 04:46:46;;;;;;;45.50;18.13;;;;;;;7.93;94.72;99178.94;5072316;28;20039;-45
2022/12/10 04:49:13;;;;;;;55.35;19.00;;;;;;;7.93;96.01;99165.69;5072024;28;20111;-45
2022/12/10 04:51:39;;;;;;;46.15;18.00;;;;;;;7.89;95.33;99166.31;5071757;28;20449;-45
2022/12/10 04:54:05;;;;;;;49.60;19.65;;;;;;;8.85;92.88;99173.94;5071512;28;20460;-45
2022/12/10 04:56:31;;;;;;;41.33;18.17;;;;;;;8.50;92.56;99168.03;5071839;28;20024;-46
2022/12/10 04:58:58;;;;;;;36.30;16.20;;;;;;;8.12;92.59;99158.78;5072106;28;20035;-46
2022/12/10 05:01:24;;;;;;;39.97;16.23;;;;;;;7.99;94.15;99164.06;5071827;28;20025;-46
2022/12/10 05:03:50;;;;;;;40.30;15.60;;;;;;;8.08;93.71;99151.47;5071612;28;20108;-46
2022/12/10 05:06:16;;;;;;;35.38;15.98;;;;;;;7.98;93.90;99146.56;5071852;28;20494;-49
2022/12/10 05:08:43;;;;;;;43.10;16.48;;;;;;;8.00;95.46;99149.81;5071640;28;20170;-46
2022/12/10 05:11:19;;;;;;;49.38;17.73;;;;;;;8.97;93.15;99160.88;5071616;28;20028;-46
2022/12/10 05:13:45;;;;;;;38.83;15.10;;;;;;;8.19;93.57;99156.16;5071645;28;20028;-45
2022/12/10 05:16:14;;;;;;;36.85;15.27;;;;;;;8.13;92.94;99162.25;5071233;28;20051;-44
2022/12/10 05:18:39;;;;;;;40.17;15.63;;;;;;;8.01;94.53;99170.81;5071426;28;20062;-45
2022/12/10 05:21:08;;;;;;;41.42;16.95;;;;;;;8.86;93.76;99169.47;5071296;28;20021;-45
2022/12/10 05:23:37;;;;;;;35.15;15.38;;;;;;;8.63;92.71;99169.88;5071329;28;20451;-45
2022/12/10 05:26:07;;;;;;;41.38;16.67;;;;;;;8.37;93.49;99168.81;5071269;28;20042;-47
2022/12/10 05:28:41;;;;;;;37.75;16.20;;;;;;;8.13;93.47;99159.59;5069752;28;20036;-44
2022/12/10 05:31:16;;;;;;;36.38;15.73;;;;;;;7.91;95.72;99154.47;5071339;28;20024;-44
2022/12/10 05:33:41;;;;;;;35.42;15.23;;;;;;;7.97;95.54;99163.47;5071192;28;20039;-44
2022/12/10 05:36:09;;;;;;;37.75;16.73;;;;;;;8.69;95.35;99158.44;5071233;28;20032;-46
2022/12/10 05:38:34;;;;;;;38.10;15.15;;;;;;;8.51;93.75;99161.72;5071553;28;20025;-44
2022/12/10 05:41:09;;;;;;;39.75;16.35;;;;;;;8.31;94.09;99174.94;5071140;28;20032;-45
2022/12/10 05:43:35;;;;;;;44.97;20.27;;;;;;;8.17;94.98;99153.72;5071276;28;20016;-46
2022/12/10 05:46:06;;;;;;;36.10;15.85;;;;;;;8.08;95.25;99159.41;5070988;28;20024;-45
2022/12/10 05:48:32;;;;;;;30.17;13.68;;;;;;;7.89;95.99;99169.75;5070925;28;20067;-44
2022/12/10 05:50:58;;;;;;;38.63;16.08;;;;;;;7.86;97.00;99153.44;5071133;28;20111;-46
2022/12/10 05:53:24;;;;;;;95.53;47.78;;;;;;;8.72;94.46;99153.56;5070944;28;20051;-43
2022/12/10 05:55:49;;;;;;;52.53;26.15;;;;;;;8.52;93.90;99155.41;5070809;28;20108;-45
2022/12/10 05:58:15;;;;;;;54.03;24.05;;;;;;;8.13;93.50;99163.09;5070786;28;20495;-45
2022/12/10 06:00:41;;;;;;;49.33;19.55;;;;;;;8.01;95.69;99146.97;5070750;28;20047;-44
2022/12/10 06:03:08;;;;;;;41.75;16.48;;;;;;;8.67;94.80;99140.09;5070884;28;20106;-44
2022/12/10 06:05:39;;;;;;;60.45;25.02;;;;;;;9.14;94.50;99148.78;5071127;28;20028;-45
2022/12/10 06:08:05;;;;;;;35.90;15.52;;;;;;;9.38;95.08;99149.09;5070889;28;20086;-45
2022/12/10 06:10:30;;;;;;;36.50;16.60;;;;;;;9.15;93.50;99149.59;5070130;28;20025;-43
2022/12/10 06:12:55;;;;;;;32.15;14.48;;;;;;;9.61;91.71;99148.59;5070327;28;20102;-42
2022/12/10 06:15:21;;;;;;;30.63;15.07;;;;;;;9.64;90.91;99142.88;5070309;28;20032;-45
2022/12/10 06:17:46;;;;;;;34.03;16.40;;;;;;;9.74;89.53;99131.78;5069879;28;20055;-45
2022/12/10 06:20:12;;;;;;;28.88;13.40;;;;;;;9.89;89.14;99126.19;5070001;28;20052;-44
2022/12/10 06:22:37;;;;;;;25.92;12.88;;;;;;;9.45;87.45;99136.63;5069692;28;20035;-45
2022/12/10 06:25:05;;;;;;;25.38;12.10;;;;;;;9.85;90.60;99144.41;5069489;28;20043;-45
2022/12/10 06:27:31;;;;;;;27.00;12.85;;;;;;;9.65;87.10;99127.75;5069967;28;20031;-44
2022/12/10 06:29:56;;;;;;;28.05;12.98;;;;;;;9.97;88.68;99144.53;5070035;28;20024;-44
2022/12/10 06:32:22;;;;;;;27.13;13.38;;;;;;;9.93;86.93;99136.16;5069834;28;20025;-48
2022/12/10 06:34:47;;;;;;;76.72;39.05;;;;;;;10.39;84.51;99144.06;5069752;28;20029;-45
2022/12/10 06:37:13;;;;;;;51.85;26.27;;;;;;;10.12;84.38;99139.72;5069611;28;20032;-46
2022/12/10 06:39:38;;;;;;;32.28;16.13;;;;;;;9.82;85.37;99149.31;5069561;28;20538;-44
2022/12/10 06:42:05;;;;;;;30.60;13.82;;;;;;;9.31;87.95;99159.75;5069498;28;20027;-44
2022/12/10 06:44:30;;;;;;;31.25;14.73;;;;;;;9.11;89.77;99143.06;5069597;28;20107;-44
2022/12/10 06:46:56;;;;;;;32.83;14.93;;;;;;;9.06;90.54;99137.56;5069777;28;20135;-45
2022/12/10 06:49:21;;;;;;;36.00;15.85;;;;;;;9.87;88.26;99152.97;5069456;28;20103;-44
2022/12/10 06:51:47;;;;;;;33.92;15.73;;;;;;;9.39;89.58;99138.28;5069102;28;20032;-44
2022/12/10 06:54:13;;;;;;;40.50;19.73;;;;;;;9.10;89.04;99144.09;5069022;28;20105;-44
2022/12/10 06:56:38;;;;;;;34.50;15.38;;;;;;;8.93;91.64;99151.66;5069000;28;20448;-45
2022/12/10 06:59:06;;;;;;;38.17;16.60;;;;;;;8.94;91.89;99162.09;5068740;28;20128;-43
2022/12/10 07:01:32;;;;;;;40.47;18.25;;;;;;;8.95;92.26;99145.16;5072672;28;20022;-43
2022/12/10 07:03:57;;;;;;;67.70;35.28;;;;;;;8.84;93.88;99140.47;5073319;28;20028;-43
2022/12/10 07:06:24;;;;;;;51.55;24.40;;;;;;;9.90;91.10;99149.91;5073241;28;20029;-46
2022/12/10 07:08:50;;;;;;;45.63;23.27;;;;;;;9.42;90.84;99145.00;5073379;28;20094;-44
2022/12/10 07:11:19;;;;;;;36.30;15.48;;;;;;;9.31;91.33;99154.44;5073222;28;20380;-45
2022/12/10 07:13:44;;;;;;;37.33;16.40;;;;;;;9.11;92.42;99170.44;5072997;28;20024;-45
2022/12/10 07:16:30;;;;;;;41.35;16.85;;;;;;;8.99;92.97;99162.28;5072664;28;20136;-48
2022/12/10 07:18:57;;;;;;;34.90;15.60;;;;;;;9.22;92.08;99147.75;5072802;28;20028;-45
2022/12/10 07:21:28;;;;;;;32.15;14.93;;;;;;;9.00;92.54;99142.69;5072453;28;20330;-45
2022/12/10 07:23:57;;;;;;;34.13;14.65;;;;;;;8.85;92.74;99142.09;5072980;28;20056;-44
2022/12/10 07:26:28;;;;;;;32.47;15.07;;;;;;;8.84;93.80;99148.44;5073181;28;20107;-45
2022/12/10 07:28:54;;;;;;;33.25;14.75;;;;;;;9.09;92.68;99129.19;5072990;28;20332;-45
2022/12/10 07:31:21;;;;;;;37.63;15.27;;;;;;;9.04;91.58;99126.34;5073738;28;20473;-46
2022/12/10 07:33:47;;;;;;;33.03;15.10;;;;;;;8.83;91.88;99135.38;5073247;28;20028;-43
2022/12/10 07:36:14;;;;;;;38.20;15.32;;;;;;;8.92;93.19;99128.81;5072450;28;20032;-43
2022/12/10 07:38:39;;;;;;;34.15;14.85;;;;;;;8.92;92.99;99126.16;5072312;28;20013;-43
2022/12/10 07:41:08;;;;;;;38.50;16.42;;;;;;;8.90;93.07;99136.19;5072109;28;20546;-44
2022/12/10 07:43:34;;;;;;;37.75;15.30;;;;;;;8.99;92.24;99126.97;5072221;28;20025;-44
2022/12/10 07:46:11;;;;;;;37.00;15.45;;;;;;;9.00;92.00;99137.41;5072100;28;20058;-44
2022/12/10 07:48:38;;;;;;;36.03;15.80;;;;;;;8.95;92.26;99126.56;5072089;28;20016;-45
2022/12/10 07:51:04;;;;;;;35.17;15.85;;;;;;;9.09;92.25;99121.22;5072243;28;20144;-45
2022/12/10 07:53:30;;;;;;;37.20;16.98;;;;;;;9.11;92.13;99127.16;5071897;28;20040;-44
2022/12/10 07:55:55;;;;;;;37.72;17.20;;;;;;;9.10;91.66;99115.72;5071830;28;20020;-45
2022/12/10 07:58:21;;;;;;;38.72;16.80;;;;;;;9.11;91.53;99127.16;5071491;28;20078;-46
2022/12/10 08:00:46;;;;;;;38.22;16.67;;;;;;;9.02;91.30;99133.69;5071892;28;20032;-36
2022/12/10 08:03:12;;;;;;;34.85;17.13;;;;;;;9.12;90.08;99132.25;5071482;28;20130;-36
2022/12/10 08:05:38;;;;;;;33.65;16.75;;;;;;;9.12;89.98;99115.47;5072215;28;20047;-37
2022/12/10 08:08:03;;;;;;;39.08;17.02;;;;;;;9.05;91.68;99138.59;5072127;28;20040;-36
2022/12/10 08:10:29;;;;;;;33.38;16.75;;;;;;;8.93;92.39;99127.78;5071864;28;20036;-36
2022/12/10 08:12:54;;;;;;;34.90;16.70;;;;;;;8.88;92.85;99122.31;5072027;28;20043;-36
2022/12/10 08:15:20;;;;;;;40.83;18.30;;;;;;;9.00;92.86;99123.28;5072360;28;20021;-36
2022/12/10 08:17:45;;;;;;;40.03;18.98;;;;;;;8.99;92.44;99125.13;5071617;28;20051;-36
2022/12/10 08:20:11;;;;;;;43.90;19.75;;;;;;;8.90;93.09;99122.91;5072081;28;20012;-36
2022/12/10 08:22:37;;;;;;;44.45;20.10;;;;;;;8.96;93.23;99122.88;5071527;28;20024;-36
2022/12/10 08:25:03;;;;;;;138.80;62.17;;;;;;;8.92;92.83;99129.63;5071704;28;20020;-36
2022/12/10 08:27:28;;;;;;;44.53;21.17;;;;;;;9.13;92.61;99133.88;5070120;28;20024;-36
2022/12/10 08:29:53;;;;;;;46.30;18.38;;;;;;;9.03;92.60;99133.50;5071492;28;20032;-36
2022/12/10 08:32:19;;;;;;;45.15;19.90;;;;;;;9.10;93.41;99114.88;5071501;28;20027;-36
2022/12/10 08:34:44;;;;;;;43.55;19.30;;;;;;;8.99;94.37;99124.31;5071421;28;20024;-36
2022/12/10 08:37:10;;;;;;;48.22;20.50;;;;;;;8.98;93.62;99096.94;5070581;28;20411;-36
2022/12/10 08:39:35;;;;;;;45.70;19.23;;;;;;;9.02;92.22;99097.34;5070643;28;20044;-36
2022/12/10 08:42:01;;;;;;;44.83;18.88;;;;;;;8.95;92.92;99091.28;5071396;28;20479;-41
2022/12/10 08:44:26;;;;;;;46.70;19.60;;;;;;;9.06;93.01;99084.47;5071489;28;20598;-36
2022/12/10 08:46:51;;;;;;;47.30;21.40;;;;;;;9.26;92.33;99103.00;5071161;28;20031;-36
2022/12/10 08:49:17;;;;;;;47.67;21.27;;;;;;;9.20;92.64;99094.84;5071260;28;20077;-35
2022/12/10 08:51:42;;;;;;;49.17;23.10;;;;;;;9.18;93.25;99096.91;5070754;28;20023;-35
2022/12/10 08:54:08;;;;;;;44.65;20.55;;;;;;;9.22;93.34;99096.50;5070860;28;20020;-36
2022/12/10 08:56:34;;;;;;;43.72;19.02;;;;;;;9.28;92.86;99090.31;5071215;28;20028;-37
2022/12/10 08:59:00;;;;;;;41.15;19.52;;;;;;;9.48;92.62;99093.72;5071256;28;20094;-37
2022/12/10 09:01:25;;;;;;;45.47;19.00;;;;;;;9.55;91.82;99088.34;5070691;28;20040;-36
2022/12/10 09:03:51;;;;;;;43.20;19.10;;;;;;;9.68;91.06;99088.28;5070060;28;20449;-35
2022/12/10 09:06:19;;;;;;;44.20;20.05;;;;;;;9.69;91.46;99081.94;5070172;28;20492;-36
2022/12/10 09:08:44;;;;;;;45.17;22.30;;;;;;;9.84;90.08;99086.94;5070021;28;20028;-36
2022/12/10 09:11:14;;;;;;;100.57;50.15;;;;;;;9.90;90.58;99064.84;5069927;28;20029;-36
2022/12/10 09:13:41;;;;;;;41.20;19.20;;;;;;;9.87;88.93;99059.94;5070088;28;20025;-36
2022/12/10 09:16:07;;;;;;;38.47;18.30;;;;;;;9.87;89.38;99045.84;5070019;28;20127;-37
2022/12/10 09:18:32;;;;;;;38.95;18.70;;;;;;;9.91;89.58;99053.16;5069973;28;20464;-36
2022/12/10 09:20:58;;;;;;;41.95;20.55;;;;;;;10.07;88.92;99032.41;5069976;28;20020;-37
2022/12/10 09:23:24;;;;;;;43.35;19.35;;;;;;;10.20;88.96;99034.13;5069174;28;20024;-35
2022/12/10 09:25:49;;;;;;;35.25;18.45;;;;;;;10.25;87.77;99029.78;5069628;28;20028;-36
2022/12/10 09:28:15;;;;;;;34.42;17.98;;;;;;;10.38;88.26;99020.91;5070035;28;20024;-36
2022/12/10 09:30:41;;;;;;;40.40;19.67;;;;;;;10.46;88.24;99038.44;5070167;28;20027;-36
2022/12/10 09:33:06;;;;;;;38.33;18.33;;;;;;;10.52;87.40;99029.56;5069838;28;20020;-37
2022/12/10 09:35:32;;;;;;;36.50;18.05;;;;;;;10.66;86.62;99016.94;5070158;28;20039;-36
2022/12/10 09:37:57;;;;;;;30.27;15.32;;;;;;;10.94;85.85;99003.91;5070585;28;20028;-36
2022/12/10 09:40:34;;;;;;;29.63;15.30;;;;;;;11.41;84.01;99002.50;5066768;28;20029;-36
2022/12/10 09:43:12;;;;;;;28.50;14.77;;;;;;;11.50;83.67;98998.47;5063701;28;20031;-37
2022/12/10 09:45:44;;;;;;;28.23;14.55;;;;;;;11.72;82.67;98993.41;5070086;28;20082;-37
2022/12/10 09:48:16;;;;;;;29.58;14.15;;;;;;;11.85;81.60;99003.88;5069752;28;20024;-37
2022/12/10 09:51:03;;;;;;;31.15;14.95;;;;;;;11.74;81.31;98991.31;5069757;28;20130;-37
2022/12/10 09:53:30;;;;;;;30.05;15.77;;;;;;;11.78;81.55;98997.81;5069388;28;20021;-37
2022/12/10 09:55:57;;;;;;;34.72;16.10;;;;;;;11.75;81.28;98992.97;5070004;28;20464;-34
2022/12/10 09:58:26;;;;;;;25.80;14.40;;;;;;;12.20;85.68;98972.97;5070003;28;20476;-42
2022/12/10 10:00:58;;;;;;;33.10;16.30;;;;;;;12.31;81.05;98967.59;5069586;28;20024;-42
2022/12/10 10:03:24;;;;;;;29.35;15.20;;;;;;;12.46;79.60;98961.78;5069321;28;20543;-42
2022/12/10 10:05:53;;;;;;;29.38;15.80;;;;;;;12.52;78.79;98965.38;5069275;28;20112;-41
2022/12/10 10:08:30;;;;;;;27.27;15.10;;;;;;;12.67;79.00;98960.34;5069710;28;20031;-42
2022/12/10 10:10:57;;;;;;;26.52;14.45;;;;;;;12.68;77.32;98955.84;5069992;28;20099;-42
2022/12/10 10:13:40;;;;;;;27.00;15.55;;;;;;;12.86;75.05;98942.31;5069904;28;20047;-42
2022/12/10 10:16:24;;;;;;;26.17;14.45;;;;;;;12.73;75.25;98952.47;5070305;28;20097;-42
2022/12/10 10:19:09;;;;;;;29.30;15.32;;;;;;;12.65;75.52;98937.63;5070744;28;20055;-42
2022/12/10 10:21:49;;;;;;;28.17;14.70;;;;;;;12.63;76.06;98929.06;5070442;28;20025;-41
2022/12/10 10:24:22;;;;;;;26.55;15.50;;;;;;;12.47;75.80;98931.41;5070700;28;20032;-42
2022/12/10 10:26:49;;;;;;;30.65;16.98;;;;;;;12.59;75.83;98944.72;5070190;28;20052;-41
2022/12/10 10:29:21;;;;;;;26.90;14.70;;;;;;;12.38;75.66;98940.03;5070187;28;20511;-41
2022/12/10 10:31:47;;;;;;;29.95;15.93;;;;;;;12.50;76.27;98932.78;5050210;28;20039;-41
2022/12/10 10:34:19;;;;;;;26.98;14.82;;;;;;;12.45;75.25;98932.66;5051698;28;20024;-41
2022/12/10 10:36:45;;;;;;;28.17;14.60;;;;;;;12.24;76.16;98937.59;5054105;28;20114;-42
2022/12/10 10:39:21;;;;;;;28.67;15.30;;;;;;;12.06;77.57;98911.84;5072174;28;20523;-43
2022/12/10 10:41:53;;;;;;;27.48;15.32;;;;;;;12.03;77.96;98907.00;5074614;28;20016;-43
2022/12/10 10:44:22;;;;;;;31.90;15.20;;;;;;;12.17;76.85;98909.44;5067909;28;20548;-42
2022/12/10 10:46:51;;;;;;;28.95;16.08;;;;;;;12.52;76.12;98912.00;5053816;28;20028;-41
2022/12/10 10:49:28;;;;;;;29.65;15.73;;;;;;;12.39;75.81;98898.94;5072372;28;20082;-42
2022/12/10 10:52:00;;;;;;;27.15;15.38;;;;;;;12.20;77.08;98895.59;5073031;28;20074;-42
2022/12/10 10:54:34;;;;;;;30.98;15.88;;;;;;;12.58;76.08;98876.38;5066934;28;20058;-42
2022/12/10 10:57:04;;;;;;;28.48;15.82;;;;;;;12.00;77.70;98874.66;5053979;28;20029;-42
2022/12/10 10:59:33;;;;;;;32.70;16.85;;;;;;;12.41;77.14;98884.31;5053549;28;20052;-42
2022/12/10 11:02:05;;;;;;;28.27;15.30;;;;;;;12.39;75.96;98874.91;5053941;28;20501;-42
2022/12/10 11:04:37;;;;;;;31.05;14.95;;;;;;;12.16;76.39;98875.78;5053360;28;20033;-41
2022/12/10 11:07:05;;;;;;;28.30;15.48;;;;;;;12.51;75.95;98889.06;5053733;28;20126;-44
2022/12/10 11:09:33;;;;;;;27.15;16.05;;;;;;;12.15;76.73;98872.31;5053588;28;20490;-42
2022/12/10 11:12:02;;;;;;;33.28;17.88;;;;;;;12.16;78.19;98884.59;5052988;28;20516;-42
2022/12/10 11:14:37;;;;;;;35.13;17.58;;;;;;;12.60;75.59;98876.13;5052437;28;20028;-42
2022/12/10 11:17:18;;;;;;;29.60;15.77;;;;;;;11.93;77.91;98861.44;5052565;28;20063;-42
2022/12/10 11:19:58;;;;;;;31.50;16.65;;;;;;;12.25;77.53;98861.03;5051217;28;20032;-42
2022/12/10 11:22:33;;;;;;;32.90;16.58;;;;;;;12.40;76.73;98868.56;5052226;28;20487;-42
2022/12/10 11:25:00;;;;;;;33.83;16.90;;;;;;;12.60;75.86;98860.13;5069569;28;20099;-42
2022/12/10 11:27:34;;;;;;;30.48;15.55;;;;;;;12.65;75.18;98855.69;5072498;28;20175;-43
2022/12/10 11:30:05;;;;;;;31.55;15.65;;;;;;;12.71;74.77;98851.25;5072500;28;20104;-43
2022/12/10 11:32:56;;;;;;;27.27;15.48;;;;;;;12.16;78.25;98857.13;5073634;28;20031;-43
2022/12/10 11:35:36;;;;;;;33.22;17.23;;;;;;;12.33;77.62;98855.34;5073274;28;20025;-43
2022/12/10 11:38:20;;;;;;;33.15;15.73;;;;;;;11.80;79.99;98841.13;5072812;28;20137;-43